TAF KSNS
KSNS 081746Z 0818/0918 14008KT 5SM -DZ BR FEW003 BKN035 FM082100 28007KT 6SM BR BKN015 OVC030 FM090400 29009G15KT P6SM SCT020 BKN025 OVC030 FM090900 31014G25KT 4SM -RA BR SCT025 BKN030 OVC040 FM091400 32011G20KT 6SM BR VCSH FEW035 SCT050=
METAR KSNS
WC KSNS
WS KSNS
WV KSNS